Tina — WDC3702 — position and weather

sailwx.info

Track history (hours):
 
Tides and Currents Weather Stations Pressure Air Temp Water Temp Dewpoint Dewpoint Depression Visibility Wind Speed Wind Dir Waves Ship Positions

Tina

Owner: Wilmington Tug, Inc., New Castle, DE. More information available from US FCC via Universal Licensing System and Coast Guard Vessel Documentation Center.

Last reported at 2017-Sep-25 00:30 UTC. Time now 2017-Sep-25 00:49 UTC.
Position N 39°43' W 075°32'.

Length 20 m; draft 3.4 m.

Type: Tug. MMSI: 367012670.

Date/timePositionNaut miles runAvg speedWind from/ knotsBaromVisibWave heightAir tempDewpointWater temp
2017-Sep-25 00:30N 39°43' W 075°32'0 0.0
2017-Sep-25 00:00N 39°43' W 075°32'0 0.0
2017-Sep-24 23:30N 39°43' W 075°32'0 0.0
2017-Sep-24 23:00N 39°43' W 075°32'0 0.0
2017-Sep-24 22:30N 39°43' W 075°32'0 0.0
2017-Sep-24 22:00N 39°43' W 075°32'0 0.0
2017-Sep-24 21:30N 39°43' W 075°32'0 0.0
2017-Sep-24 21:01N 39°43' W 075°32'0 0.0
2017-Sep-24 20:30N 39°43' W 075°31'0 0.0
2017-Sep-24 20:00N 39°43' W 075°32'0 0.0
2017-Sep-24 19:30N 39°43' W 075°31'0 0.0
2017-Sep-24 19:00N 39°43' W 075°32'0 0.0
2017-Sep-24 18:30N 39°43' W 075°32'0 0.0
2017-Sep-24 18:01N 39°43' W 075°32'0 0.0
2017-Sep-24 17:30N 39°43' W 075°32'0 0.0
2017-Sep-24 17:00N 39°43' W 075°31'0 0.0
2017-Sep-24 16:30N 39°43' W 075°32'0 0.0
2017-Sep-24 16:00N 39°43' W 075°32'0 0.0
2017-Sep-24 15:30N 39°43' W 075°32'0 0.0
2017-Sep-24 15:00N 39°43' W 075°31'0 0.0
2017-Sep-24 14:30N 39°43' W 075°32'0 0.0
2017-Sep-24 14:00N 39°43' W 075°32'0 0.0
2017-Sep-24 13:30N 39°43' W 075°32'0 0.0
2017-Sep-24 13:00N 39°43' W 075°32'0 0.0
2017-Sep-24 12:30N 39°43' W 075°32'0 0.0
2017-Sep-24 12:00N 39°43' W 075°32'0 0.0
2017-Sep-24 11:30N 39°43' W 075°31'0 0.0
2017-Sep-24 11:00N 39°43' W 075°32'0 0.0
2017-Sep-24 10:30N 39°43' W 075°32'0 0.0
2017-Sep-24 10:00N 39°43' W 075°32'0 0.0
2017-Sep-24 09:30N 39°43' W 075°32'0 0.0
2017-Sep-24 09:00N 39°43' W 075°32'0 0.0
2017-Sep-24 08:31N 39°43' W 075°32'0 0.0
2017-Sep-24 08:00N 39°43' W 075°32'0 0.0
2017-Sep-24 07:30N 39°43' W 075°32'0 0.0
2017-Sep-24 07:00N 39°43' W 075°32'0 0.0
2017-Sep-24 06:30N 39°43' W 075°32'0 0.0
2017-Sep-24 06:00N 39°43' W 075°32'0 0.0
2017-Sep-24 05:30N 39°43' W 075°32'0 0.0
2017-Sep-24 05:00N 39°43' W 075°32'0 0.0
2017-Sep-24 04:31N 39°43' W 075°32'0 0.0
2017-Sep-24 04:01N 39°43' W 075°32'0 0.0
2017-Sep-24 03:31N 39°43' W 075°32'0 0.0
2017-Sep-24 03:01N 39°43' W 075°32'0 0.0
2017-Sep-24 02:30N 39°43' W 075°31'0 0.0
2017-Sep-24 02:00N 39°43' W 075°32'0 0.0
2017-Sep-24 01:30N 39°43' W 075°32'0 0.0
2017-Sep-24 01:00N 39°43' W 075°32'0 0.0
2017-Sep-24 00:30N 39°43' W 075°32'0 0.0
2017-Sep-24 00:00N 39°43' W 075°31'0 0.0
2017-Sep-23 23:30N 39°43' W 075°32'0 0.0
2017-Sep-23 23:00N 39°43' W 075°32'0 0.0
2017-Sep-23 22:31N 39°43' W 075°32'0 0.0
2017-Sep-23 22:00N 39°43' W 075°31'0 0.0
2017-Sep-23 21:30N 39°43' W 075°32'0 0.0
2017-Sep-23 21:00N 39°43' W 075°32'0 0.0
2017-Sep-23 20:31N 39°43' W 075°32'0 0.0
2017-Sep-23 20:01N 39°43' W 075°32'0 0.0
2017-Sep-22 02:00N 39°43' W 075°31'1 2.0
2017-Sep-22 01:30N 39°42' W 075°31'1 2.2
2017-Sep-22 01:00N 39°41' W 075°31'3 5.5
2017-Sep-22 00:30N 39°44' W 075°30'611.5
2017-Sep-22 00:00N 39°48' W 075°25'0 0.7
2017-Sep-21 23:30N 39°48' W 075°25'0 0.0
2017-Sep-21 23:00N 39°48' W 075°25'3 5.4
2017-Sep-21 22:30N 39°50' W 075°22'3 5.5
2017-Sep-21 22:00N 39°51' W 075°19'2 4.0
2017-Sep-21 21:30N 39°51' W 075°17'0 0.5
2017-Sep-21 21:01N 39°51' W 075°16'0 0.0
2017-Sep-21 20:31N 39°51' W 075°16'2 3.1
2017-Sep-21 20:01N 39°51' W 075°18'4 7.3
2017-Sep-21 19:31N 39°49' W 075°23'5 9.6
2017-Sep-21 19:01N 39°47' W 075°28'5 9.0
2017-Sep-21 18:30N 39°43' W 075°31'0 0.0
2017-Sep-21 18:01N 39°43' W 075°31'0 0.0
2017-Sep-21 17:31N 39°43' W 075°31'0 0.0
2017-Sep-21 17:01N 39°43' W 075°31'0 0.0
2017-Sep-21 16:30N 39°43' W 075°31'0 0.0
2017-Sep-21 16:00N 39°43' W 075°31'0 0.0
2017-Sep-21 15:30N 39°43' W 075°31'0 0.0
2017-Sep-21 15:00N 39°43' W 075°31'0 0.0
2017-Sep-21 14:30N 39°43' W 075°31'0 0.0
2017-Sep-21 14:00N 39°43' W 075°31'0 0.0
2017-Sep-21 13:30N 39°43' W 075°31'0 0.0
2017-Sep-21 13:00N 39°43' W 075°31'0 0.0
2017-Sep-21 12:30N 39°43' W 075°31'0 0.0
2017-Sep-21 12:00N 39°43' W 075°31'0 0.0
2017-Sep-21 11:30N 39°43' W 075°31'0 0.0
2017-Sep-21 11:00N 39°43' W 075°31'0 0.0
2017-Sep-21 10:30N 39°43' W 075°31'0 0.0
2017-Sep-21 10:00N 39°43' W 075°31'0 0.0
2017-Sep-21 09:30N 39°43' W 075°31'0 0.0
2017-Sep-21 09:00N 39°43' W 075°31'0 0.0
2017-Sep-21 08:30N 39°43' W 075°31'0 0.0
2017-Sep-21 08:00N 39°43' W 075°31'0 0.0
2017-Sep-21 07:30N 39°43' W 075°31'0 0.0
2017-Sep-21 07:00N 39°43' W 075°31'0 0.0
2017-Sep-21 06:30N 39°43' W 075°31'0 0.0
2017-Sep-21 06:00N 39°43' W 075°31'0 0.0
2017-Sep-21 05:30N 39°43' W 075°31'0 0.0
2017-Sep-21 05:00N 39°43' W 075°31'0 0.0
2017-Sep-21 04:30N 39°43' W 075°31'0 0.0
2017-Sep-21 04:00N 39°43' W 075°31'0 0.0
2017-Sep-21 03:30N 39°43' W 075°31'0 0.0
2017-Sep-21 03:01N 39°43' W 075°31'0 0.0
2017-Sep-21 02:31N 39°43' W 075°31'0 0.0
2017-Sep-21 02:00N 39°43' W 075°31'0 0.0
2017-Sep-21 01:31N 39°43' W 075°31'0 0.0
2017-Sep-21 01:00N 39°43' W 075°31'0 0.0
2017-Sep-21 00:30N 39°43' W 075°31'0 0.0
2017-Sep-21 00:01N 39°43' W 075°31'0 0.0
2017-Sep-20 23:31N 39°43' W 075°31'0 0.0
2017-Sep-20 23:00N 39°43' W 075°31'0 0.0
2017-Sep-20 22:30N 39°43' W 075°31'0 0.0
2017-Sep-20 22:00N 39°43' W 075°31'0 0.0
2017-Sep-20 21:31N 39°43' W 075°31'0 0.0
2017-Sep-20 21:00N 39°43' W 075°31'0 0.0
2017-Sep-20 20:31N 39°43' W 075°31'0 0.0
2017-Sep-20 20:01N 39°43' W 075°31'0 0.0
2017-Sep-20 19:31N 39°43' W 075°31'0 0.0
2017-Sep-20 19:00N 39°43' W 075°31'0 0.0
2017-Sep-20 18:31N 39°43' W 075°31'0 0.0
2017-Sep-20 18:00N 39°43' W 075°31'0 0.0
2017-Sep-20 17:31N 39°43' W 075°31'0 0.0
2017-Sep-20 17:01N 39°43' W 075°31'1 1.1
2017-Sep-20 16:31N 39°43' W 075°31'1 1.1
2017-Sep-20 16:00N 39°43' W 075°31'0 0.0
2017-Sep-20 15:31N 39°43' W 075°31'0 0.0
2017-Sep-20 15:00N 39°43' W 075°31'0 0.0
2017-Sep-20 14:01N 39°43' W 075°31'0 0.0
2017-Sep-20 13:31N 39°43' W 075°31'0 0.0
2017-Sep-20 13:01N 39°43' W 075°31'0 0.0
2017-Sep-20 12:31N 39°43' W 075°31'0 0.0
2017-Sep-20 12:01N 39°43' W 075°31'0 0.0
2017-Sep-20 11:30N 39°43' W 075°31'0 0.0
2017-Sep-20 11:00N 39°43' W 075°31'0 0.0
2017-Sep-20 10:31N 39°43' W 075°31'0 0.0
2017-Sep-20 10:01N 39°43' W 075°31'0 0.0
2017-Sep-20 09:31N 39°43' W 075°31'0 0.0
2017-Sep-20 09:01N 39°43' W 075°31'0 0.0
2017-Sep-20 08:30N 39°43' W 075°31'0 0.0
2017-Sep-20 08:00N 39°43' W 075°31'0 0.0
2017-Sep-20 07:30N 39°43' W 075°31'0 0.0
2017-Sep-20 07:00N 39°43' W 075°31'0 0.0
2017-Sep-20 06:31N 39°43' W 075°31'0 0.0
2017-Sep-20 06:00N 39°43' W 075°31'0 0.0
2017-Sep-20 05:31N 39°43' W 075°31'0 0.0
2017-Sep-20 05:00N 39°43' W 075°31'0 0.0
2017-Sep-20 04:31N 39°43' W 075°31'0 0.0
2017-Sep-20 04:00N 39°43' W 075°31'0 0.0
2017-Sep-20 03:30N 39°43' W 075°31'0 0.0
2017-Sep-20 03:00N 39°43' W 075°31'0 0.0
2017-Sep-20 02:30N 39°43' W 075°31'0 0.0
2017-Sep-20 02:00N 39°43' W 075°31'0 0.0
2017-Sep-20 01:30N 39°43' W 075°31'0 0.0
2017-Sep-20 01:00N 39°43' W 075°31'0 0.0
2017-Sep-20 00:30N 39°43' W 075°31'0 0.0
2017-Sep-20 00:00N 39°43' W 075°31'0 0.0
2017-Sep-19 23:30N 39°43' W 075°31'0 0.0
2017-Sep-19 23:00N 39°43' W 075°31'0 0.0
2017-Sep-19 22:30N 39°43' W 075°31'0 0.0
2017-Sep-19 22:01N 39°43' W 075°31'0 0.0
2017-Sep-19 21:30N 39°43' W 075°31'0 0.0
2017-Sep-19 21:00N 39°43' W 075°31'0 0.0
2017-Sep-19 20:30N 39°43' W 075°31'0 0.0
2017-Sep-19 20:00N 39°43' W 075°31'0 0.0
2017-Sep-19 19:30N 39°43' W 075°31'0 0.0
2017-Sep-19 19:00N 39°43' W 075°31'0 0.0
2017-Sep-19 18:30N 39°43' W 075°31'0 0.0
2017-Sep-19 18:01N 39°43' W 075°31'0 0.0
2017-Sep-19 17:30N 39°43' W 075°31'0 0.0
2017-Sep-19 17:00N 39°43' W 075°31'0 0.0
2017-Sep-19 16:30N 39°43' W 075°31'0 0.0
2017-Sep-19 16:00N 39°43' W 075°31'0 0.6
2017-Sep-19 15:31N 39°43' W 075°31'0 0.0
2017-Sep-19 15:01N 39°43' W 075°31'0 0.4
2017-Sep-19 14:31N 39°43' W 075°31'0 0.2
2017-Sep-19 14:00N 39°43' W 075°31'0 0.0
2017-Sep-19 13:31N 39°43' W 075°31'0 0.0
2017-Sep-19 13:01N 39°43' W 075°31'0 0.0
2017-Sep-19 12:30N 39°43' W 075°31'0 0.0
2017-Sep-19 12:00N 39°43' W 075°31'0 0.0
2017-Sep-19 11:31N 39°43' W 075°31'0 0.0
2017-Sep-19 11:00N 39°43' W 075°31'0 0.0
2017-Sep-19 10:31N 39°43' W 075°31'0 0.0
2017-Sep-19 10:00N 39°43' W 075°31'0 0.0
2017-Sep-19 09:30N 39°43' W 075°31'0 0.0
2017-Sep-19 09:00N 39°43' W 075°31'0 0.0
2017-Sep-19 08:30N 39°43' W 075°31'0 0.0
2017-Sep-19 08:00N 39°43' W 075°31'0 0.0
2017-Sep-19 07:30N 39°43' W 075°31'0 0.0
2017-Sep-19 07:00N 39°43' W 075°31'0 0.0
2017-Sep-19 06:30N 39°43' W 075°31'0 0.0
2017-Sep-19 06:00N 39°43' W 075°31'0 0.0
2017-Sep-19 05:30N 39°43' W 075°31'0 0.0
2017-Sep-19 05:00N 39°43' W 075°31'0 0.0
2017-Sep-19 04:30N 39°43' W 075°31'0 0.0
2017-Sep-19 04:00N 39°43' W 075°31'0 0.0
2017-Sep-19 03:30N 39°43' W 075°31'0 0.0
2017-Sep-19 03:00N 39°43' W 075°31'0 0.0
2017-Sep-19 02:30N 39°43' W 075°31'0 0.0
2017-Sep-19 02:01N 39°43' W 075°31'0 0.0
2017-Sep-19 01:31N 39°43' W 075°31'0 0.0
2017-Sep-19 01:00N 39°43' W 075°31'0 0.0
2017-Sep-19 00:30N 39°43' W 075°31'0 0.0
2017-Sep-19 00:00N 39°43' W 075°31'0 0.0
2017-Sep-18 23:30N 39°43' W 075°31'0 0.0
2017-Sep-18 23:00N 39°43' W 075°31'0 0.0
2017-Sep-18 22:31N 39°43' W 075°31'0 0.0
2017-Sep-18 22:00N 39°43' W 075°31'0 0.0
2017-Sep-18 21:30N 39°43' W 075°31'0 0.0
2017-Sep-18 21:00N 39°43' W 075°31'510.9
2017-Sep-18 20:31N 39°47' W 075°27'612.3
2017-Sep-18 20:00N 39°51' W 075°20'3 6.4
2017-Sep-18 19:30N 39°51' W 075°16'0 0.1
2017-Sep-18 19:00N 39°51' W 075°16'0 0.0
2017-Sep-18 18:30N 39°51' W 075°16'4 8.4
2017-Sep-18 18:00N 39°50' W 075°21'5 9.9
2017-Sep-18 17:30N 39°47' W 075°27'510.0
2017-Sep-18 17:01N 39°43' W 075°30'1 1.3
2017-Sep-18 16:31N 39°43' W 075°31'0 0.0
2017-Sep-18 16:00N 39°43' W 075°31'0 0.0
2017-Sep-18 15:30N 39°43' W 075°31'0 0.0
2017-Sep-18 15:00N 39°43' W 075°31'0 0.0
2017-Sep-18 14:31N 39°43' W 075°31'0 0.0
2017-Sep-18 14:00N 39°43' W 075°31'0 0.0
2017-Sep-18 13:30N 39°43' W 075°31'0 0.0
2017-Sep-18 13:00N 39°43' W 075°31'0 0.0
2017-Sep-18 12:30N 39°43' W 075°31'0 0.0
2017-Sep-18 12:00N 39°43' W 075°31'0 0.0
2017-Sep-18 11:30N 39°43' W 075°31'0 0.0
2017-Sep-18 11:00N 39°43' W 075°31'0 0.0
2017-Sep-18 10:30N 39°43' W 075°31'0 0.0
2017-Sep-18 10:01N 39°43' W 075°31'0 0.0
2017-Sep-18 09:30N 39°43' W 075°31'0 0.0
2017-Sep-18 09:00N 39°43' W 075°31'0 0.0
2017-Sep-18 08:30N 39°43' W 075°31'0 0.0
2017-Sep-18 08:00N 39°43' W 075°31'0 0.0
2017-Sep-18 07:30N 39°43' W 075°31'0 0.0
2017-Sep-18 07:00N 39°43' W 075°31'0 0.0
2017-Sep-18 06:30N 39°43' W 075°31'0 0.0
2017-Sep-18 06:00N 39°43' W 075°31'0 0.0
2017-Sep-18 05:30N 39°43' W 075°31'0 0.0
2017-Sep-18 05:00N 39°43' W 075°31'0 0.0
2017-Sep-18 04:30N 39°43' W 075°31'0 0.0
2017-Sep-18 04:00N 39°43' W 075°31'0 0.0
2017-Sep-18 03:30N 39°43' W 075°31'0 0.0
2017-Sep-18 03:00N 39°43' W 075°31'510.4
2017-Sep-18 02:30N 39°38' W 075°34'5 9.1
2017-Sep-18 02:00N 39°34' W 075°33'2 3.7
2017-Sep-18 01:30N 39°35' W 075°35'1 1.0
2017-Sep-18 01:00N 39°35' W 075°36'1 2.1
2017-Sep-18 00:31N 39°36' W 075°36'4 8.2
2017-Sep-18 00:00N 39°39' W 075°33'4 7.8
2017-Sep-17 23:30N 39°43' W 075°31'0 0.0
2017-Sep-17 23:01N 39°43' W 075°31'0 0.0
2017-Sep-17 22:30N 39°43' W 075°31'0 0.0
2017-Sep-17 22:01N 39°43' W 075°31'0 0.0
2017-Sep-17 21:31N 39°43' W 075°31'0 0.0
2017-Sep-17 21:00N 39°43' W 075°31'0 0.0
2017-Sep-17 20:31N 39°43' W 075°31'0 0.0
2017-Sep-17 20:01N 39°43' W 075°31'0 0.0
2017-Sep-17 19:30N 39°43' W 075°31'0 0.0
2017-Sep-17 19:01N 39°43' W 075°31'0 0.0
2017-Sep-17 18:31N 39°43' W 075°31'0 0.0
2017-Sep-17 18:01N 39°43' W 075°31'0 0.0
2017-Sep-17 17:31N 39°43' W 075°31'0 0.0
2017-Sep-17 17:01N 39°43' W 075°31'0 0.0
2017-Sep-17 16:31N 39°43' W 075°31'0 0.0
2017-Sep-17 16:01N 39°43' W 075°31'0 0.0
2017-Sep-17 15:31N 39°43' W 075°31'0 0.0
2017-Sep-17 15:00N 39°43' W 075°31'0 0.0
2017-Sep-17 14:30N 39°43' W 075°31'0 0.0
2017-Sep-17 14:00N 39°43' W 075°31'0 0.0
2017-Sep-17 13:31N 39°43' W 075°31'0 0.0
2017-Sep-17 13:00N 39°43' W 075°31'0 0.0
2017-Sep-17 12:30N 39°43' W 075°31'0 0.0
2017-Sep-17 12:00N 39°43' W 075°31'0 0.0
2017-Sep-17 11:30N 39°43' W 075°31'0 0.0
2017-Sep-17 11:00N 39°43' W 075°31'0 0.0
2017-Sep-17 10:30N 39°43' W 075°31'0 0.0
2017-Sep-17 10:00N 39°43' W 075°31'0 0.0
2017-Sep-17 09:30N 39°43' W 075°31'0 0.0
2017-Sep-17 09:00N 39°43' W 075°31'0 0.0
2017-Sep-17 08:30N 39°43' W 075°31'0 0.0
2017-Sep-17 08:00N 39°43' W 075°31'0 0.0
2017-Sep-17 07:30N 39°43' W 075°31'0 0.0
2017-Sep-17 07:00N 39°43' W 075°31'0 0.0
2017-Sep-17 06:30N 39°43' W 075°31'0 0.0
2017-Sep-17 06:00N 39°43' W 075°31'0 0.0
2017-Sep-17 05:30N 39°43' W 075°31'0 0.0
2017-Sep-17 05:01N 39°43' W 075°31'0 0.0
2017-Sep-17 04:30N 39°43' W 075°31'0 0.0
2017-Sep-17 04:00N 39°43' W 075°31'0 0.0
2017-Sep-17 03:30N 39°43' W 075°31'0 0.0
2017-Sep-17 03:00N 39°43' W 075°31'0 0.0
2017-Sep-17 02:31N 39°43' W 075°31'0 0.0
2017-Sep-17 02:01N 39°43' W 075°31'0 0.0
2017-Sep-17 01:30N 39°43' W 075°31'0 0.0
2017-Sep-17 01:00N 39°43' W 075°31'0 0.0
2017-Sep-17 00:31N 39°43' W 075°31'0 0.0
2017-Sep-17 00:00N 39°43' W 075°31'0 0.0
2017-Sep-16 23:30N 39°43' W 075°31'0 0.0
2017-Sep-16 23:00N 39°43' W 075°31'0 0.0
2017-Sep-16 22:30N 39°43' W 075°31'0 0.0
2017-Sep-16 22:00N 39°43' W 075°31'0 0.0
2017-Sep-16 21:30N 39°43' W 075°31'0 0.0
2017-Sep-16 21:00N 39°43' W 075°31'0 0.0
2017-Sep-16 20:30N 39°43' W 075°31'0 0.0
2017-Sep-16 20:00N 39°43' W 075°31'0 0.0
2017-Sep-16 19:31N 39°43' W 075°31'0 0.0
2017-Sep-16 19:00N 39°43' W 075°31'0 0.0
2017-Sep-16 18:31N 39°43' W 075°31'0 0.0
2017-Sep-16 18:00N 39°43' W 075°31'0 0.0
2017-Sep-16 17:31N 39°43' W 075°31'0 0.0
2017-Sep-16 17:01N 39°43' W 075°31'0 0.0
2017-Sep-16 16:31N 39°43' W 075°31'0 0.0
2017-Sep-16 16:01N 39°43' W 075°31'1 1.2
2017-Sep-16 15:30N 39°42' W 075°31'5 9.6
2017-Sep-16 15:01N 39°39' W 075°35'4 7.3
2017-Sep-16 14:31N 39°35' W 075°35'0 0.0
2017-Sep-16 14:00N 39°35' W 075°35'2 3.0
2017-Sep-16 13:30N 39°34' W 075°34'1 2.9
2017-Sep-16 13:01N 39°33' W 075°33'3 5.2
2017-Sep-16 12:30N 39°36' W 075°34'4 7.9
2017-Sep-16 12:01N 39°39' W 075°33'4 7.5
2017-Sep-16 11:30N 39°43' W 075°31'0 0.0
2017-Sep-16 11:00N 39°43' W 075°31'0 0.0
2017-Sep-16 10:30N 39°43' W 075°31'0 0.0
2017-Sep-16 10:00N 39°43' W 075°31'0 0.0
2017-Sep-16 09:30N 39°43' W 075°31'0 0.0
2017-Sep-16 09:01N 39°43' W 075°31'0 0.0
2017-Sep-16 08:30N 39°43' W 075°31'0 0.0
2017-Sep-16 08:00N 39°43' W 075°31'0 0.0
2017-Sep-16 07:30N 39°43' W 075°31'0 0.0
2017-Sep-16 07:00N 39°43' W 075°31'0 0.0
2017-Sep-16 06:30N 39°43' W 075°31'0 0.0
2017-Sep-16 06:01N 39°43' W 075°31'0 0.0
2017-Sep-16 05:30N 39°43' W 075°31'0 0.0
2017-Sep-16 05:00N 39°43' W 075°31'0 0.0
2017-Sep-16 04:30N 39°43' W 075°31'0 0.0
2017-Sep-16 04:00N 39°43' W 075°31'0 0.0
2017-Sep-16 03:30N 39°43' W 075°31'0 0.0
2017-Sep-16 03:00N 39°43' W 075°31'0 0.0
2017-Sep-16 02:31N 39°43' W 075°31'0 0.0
2017-Sep-16 02:00N 39°43' W 075°31'0 0.0
2017-Sep-16 01:30N 39°43' W 075°31'0 0.0
2017-Sep-16 01:01N 39°43' W 075°31'0 0.0
2017-Sep-16 00:30N 39°43' W 075°31'0 0.0
2017-Sep-16 00:01N 39°43' W 075°31'0 0.0
2017-Sep-15 23:30N 39°43' W 075°31'0 0.0
2017-Sep-15 23:00N 39°43' W 075°31'0 0.0
2017-Sep-15 22:30N 39°43' W 075°31'0 0.0
2017-Sep-15 22:01N 39°43' W 075°31'0 0.0
2017-Sep-15 21:31N 39°43' W 075°31'0 0.0
2017-Sep-15 21:01N 39°43' W 075°31'0 0.0
2017-Sep-15 20:31N 39°43' W 075°31'0 0.0
2017-Sep-15 20:01N 39°43' W 075°31'0 0.0
2017-Sep-15 19:31N 39°43' W 075°31'0 0.0
2017-Sep-15 19:00N 39°43' W 075°31'0 0.0
2017-Sep-15 18:31N 39°43' W 075°31'0 0.0
2017-Sep-15 18:00N 39°43' W 075°31'0 0.0
2017-Sep-15 17:31N 39°43' W 075°31'0 0.0
2017-Sep-15 17:01N 39°43' W 075°31'0 0.0
2017-Sep-15 16:30N 39°43' W 075°31'0 0.0
2017-Sep-15 16:00N 39°43' W 075°31'0 0.0
2017-Sep-15 15:30N 39°43' W 075°31'0 0.0
2017-Sep-15 15:00N 39°43' W 075°31'0 0.0
2017-Sep-15 14:30N 39°43' W 075°31'0 0.0
2017-Sep-15 14:00N 39°43' W 075°31'0 0.0
2017-Sep-15 13:30N 39°43' W 075°31'0 0.0
2017-Sep-15 13:00N 39°43' W 075°31'0 0.0
2017-Sep-15 12:30N 39°43' W 075°31'0 0.0
2017-Sep-15 12:00N 39°43' W 075°31'0 0.0
2017-Sep-15 11:30N 39°43' W 075°31'0 0.0
2017-Sep-15 11:00N 39°43' W 075°31'0 0.0
2017-Sep-15 10:30N 39°43' W 075°31'0 0.0
2017-Sep-15 10:00N 39°43' W 075°31'0 0.0
2017-Sep-15 09:30N 39°43' W 075°31'0 0.0
2017-Sep-15 09:00N 39°43' W 075°31'0 0.0
2017-Sep-15 08:30N 39°43' W 075°31'0 0.0
2017-Sep-15 08:01N 39°43' W 075°31'0 0.0
2017-Sep-15 07:31N 39°43' W 075°31'0 0.0
2017-Sep-15 07:00N 39°43' W 075°31'0 0.0
2017-Sep-15 06:31N 39°43' W 075°31'0 0.0
2017-Sep-15 06:00N 39°43' W 075°31'0 0.0
2017-Sep-15 05:30N 39°43' W 075°31'0 0.0
2017-Sep-15 05:00N 39°43' W 075°31'0 0.0
2017-Sep-15 04:30N 39°43' W 075°31'0 0.0
2017-Sep-15 04:00N 39°43' W 075°31'0 0.0
2017-Sep-15 03:30N 39°43' W 075°31'0 0.0
2017-Sep-15 03:00N 39°43' W 075°31'0 0.0
2017-Sep-15 02:30N 39°43' W 075°31'0 0.0
2017-Sep-15 02:00N 39°43' W 075°31'0 0.0
2017-Sep-15 01:30N 39°43' W 075°31'0 0.0
2017-Sep-15 01:01N 39°43' W 075°31'0 0.0
2017-Sep-15 00:30N 39°43' W 075°31'  
Track history (hours):
 
Tides and Currents Weather Stations Pressure Air Temp Water Temp Dewpoint Dewpoint Depression Visibility Wind Speed Wind Dir Waves Ship Positions

Tina

Owner: Wilmington Tug, Inc., New Castle, DE. More information available from US FCC via Universal Licensing System and Coast Guard Vessel Documentation Center.

Last reported at 2017-Sep-25 00:30 UTC. Time now 2017-Sep-25 00:49 UTC.
Position N 39°43' W 075°32'.

Length 20 m; draft 3.4 m.

Type: Tug. MMSI: 367012670.

Date/timePositionNaut miles runAvg speedWind from/ knotsBaromVisibWave heightAir tempDewpointWater temp
2017-Sep-25 00:30N 39°43' W 075°32'0 0.0
2017-Sep-25 00:00N 39°43' W 075°32'0 0.0
2017-Sep-24 23:30N 39°43' W 075°32'0 0.0
2017-Sep-24 23:00N 39°43' W 075°32'0 0.0
2017-Sep-24 22:30N 39°43' W 075°32'0 0.0
2017-Sep-24 22:00N 39°43' W 075°32'0 0.0
2017-Sep-24 21:30N 39°43' W 075°32'0 0.0
2017-Sep-24 21:01N 39°43' W 075°32'0 0.0
2017-Sep-24 20:30N 39°43' W 075°31'0 0.0
2017-Sep-24 20:00N 39°43' W 075°32'0 0.0
2017-Sep-24 19:30N 39°43' W 075°31'0 0.0
2017-Sep-24 19:00N 39°43' W 075°32'0 0.0
2017-Sep-24 18:30N 39°43' W 075°32'0 0.0
2017-Sep-24 18:01N 39°43' W 075°32'0 0.0
2017-Sep-24 17:30N 39°43' W 075°32'0 0.0
2017-Sep-24 17:00N 39°43' W 075°31'0 0.0
2017-Sep-24 16:30N 39°43' W 075°32'0 0.0
2017-Sep-24 16:00N 39°43' W 075°32'0 0.0
2017-Sep-24 15:30N 39°43' W 075°32'0 0.0
2017-Sep-24 15:00N 39°43' W 075°31'0 0.0
2017-Sep-24 14:30N 39°43' W 075°32'0 0.0
2017-Sep-24 14:00N 39°43' W 075°32'0 0.0
2017-Sep-24 13:30N 39°43' W 075°32'0 0.0
2017-Sep-24 13:00N 39°43' W 075°32'0 0.0
2017-Sep-24 12:30N 39°43' W 075°32'0 0.0
2017-Sep-24 12:00N 39°43' W 075°32'0 0.0
2017-Sep-24 11:30N 39°43' W 075°31'0 0.0
2017-Sep-24 11:00N 39°43' W 075°32'0 0.0
2017-Sep-24 10:30N 39°43' W 075°32'0 0.0
2017-Sep-24 10:00N 39°43' W 075°32'0 0.0
2017-Sep-24 09:30N 39°43' W 075°32'0 0.0
2017-Sep-24 09:00N 39°43' W 075°32'0 0.0
2017-Sep-24 08:31N 39°43' W 075°32'0 0.0
2017-Sep-24 08:00N 39°43' W 075°32'0 0.0
2017-Sep-24 07:30N 39°43' W 075°32'0 0.0
2017-Sep-24 07:00N 39°43' W 075°32'0 0.0
2017-Sep-24 06:30N 39°43' W 075°32'0 0.0
2017-Sep-24 06:00N 39°43' W 075°32'0 0.0
2017-Sep-24 05:30N 39°43' W 075°32'0 0.0
2017-Sep-24 05:00N 39°43' W 075°32'0 0.0
2017-Sep-24 04:31N 39°43' W 075°32'0 0.0
2017-Sep-24 04:01N 39°43' W 075°32'0 0.0
2017-Sep-24 03:31N 39°43' W 075°32'0 0.0
2017-Sep-24 03:01N 39°43' W 075°32'0 0.0
2017-Sep-24 02:30N 39°43' W 075°31'0 0.0
2017-Sep-24 02:00N 39°43' W 075°32'0 0.0
2017-Sep-24 01:30N 39°43' W 075°32'0 0.0
2017-Sep-24 01:00N 39°43' W 075°32'0 0.0
2017-Sep-24 00:30N 39°43' W 075°32'0 0.0
2017-Sep-24 00:00N 39°43' W 075°31'0 0.0
2017-Sep-23 23:30N 39°43' W 075°32'0 0.0
2017-Sep-23 23:00N 39°43' W 075°32'0 0.0
2017-Sep-23 22:31N 39°43' W 075°32'0 0.0
2017-Sep-23 22:00N 39°43' W 075°31'0 0.0
2017-Sep-23 21:30N 39°43' W 075°32'0 0.0
2017-Sep-23 21:00N 39°43' W 075°32'0 0.0
2017-Sep-23 20:31N 39°43' W 075°32'0 0.0
2017-Sep-23 20:01N 39°43' W 075°32'0 0.0
2017-Sep-22 02:00N 39°43' W 075°31'1 2.0
2017-Sep-22 01:30N 39°42' W 075°31'1 2.2
2017-Sep-22 01:00N 39°41' W 075°31'3 5.5
2017-Sep-22 00:30N 39°44' W 075°30'611.5
2017-Sep-22 00:00N 39°48' W 075°25'0 0.7
2017-Sep-21 23:30N 39°48' W 075°25'0 0.0
2017-Sep-21 23:00N 39°48' W 075°25'3 5.4
2017-Sep-21 22:30N 39°50' W 075°22'3 5.5
2017-Sep-21 22:00N 39°51' W 075°19'2 4.0
2017-Sep-21 21:30N 39°51' W 075°17'0 0.5
2017-Sep-21 21:01N 39°51' W 075°16'0 0.0
2017-Sep-21 20:31N 39°51' W 075°16'2 3.1
2017-Sep-21 20:01N 39°51' W 075°18'4 7.3
2017-Sep-21 19:31N 39°49' W 075°23'5 9.6
2017-Sep-21 19:01N 39°47' W 075°28'5 9.0
2017-Sep-21 18:30N 39°43' W 075°31'0 0.0
2017-Sep-21 18:01N 39°43' W 075°31'0 0.0
2017-Sep-21 17:31N 39°43' W 075°31'0 0.0
2017-Sep-21 17:01N 39°43' W 075°31'0 0.0
2017-Sep-21 16:30N 39°43' W 075°31'0 0.0
2017-Sep-21 16:00N 39°43' W 075°31'0 0.0
2017-Sep-21 15:30N 39°43' W 075°31'0 0.0
2017-Sep-21 15:00N 39°43' W 075°31'0 0.0
2017-Sep-21 14:30N 39°43' W 075°31'0 0.0
2017-Sep-21 14:00N 39°43' W 075°31'0 0.0
2017-Sep-21 13:30N 39°43' W 075°31'0 0.0
2017-Sep-21 13:00N 39°43' W 075°31'0 0.0
2017-Sep-21 12:30N 39°43' W 075°31'0 0.0
2017-Sep-21 12:00N 39°43' W 075°31'0 0.0
2017-Sep-21 11:30N 39°43' W 075°31'0 0.0
2017-Sep-21 11:00N 39°43' W 075°31'0 0.0
2017-Sep-21 10:30N 39°43' W 075°31'0 0.0
2017-Sep-21 10:00N 39°43' W 075°31'0 0.0
2017-Sep-21 09:30N 39°43' W 075°31'0 0.0
2017-Sep-21 09:00N 39°43' W 075°31'0 0.0
2017-Sep-21 08:30N 39°43' W 075°31'0 0.0
2017-Sep-21 08:00N 39°43' W 075°31'0 0.0
2017-Sep-21 07:30N 39°43' W 075°31'0 0.0
2017-Sep-21 07:00N 39°43' W 075°31'0 0.0
2017-Sep-21 06:30N 39°43' W 075°31'0 0.0
2017-Sep-21 06:00N 39°43' W 075°31'0 0.0
2017-Sep-21 05:30N 39°43' W 075°31'0 0.0
2017-Sep-21 05:00N 39°43' W 075°31'0 0.0
2017-Sep-21 04:30N 39°43' W 075°31'0 0.0
2017-Sep-21 04:00N 39°43' W 075°31'0 0.0
2017-Sep-21 03:30N 39°43' W 075°31'0 0.0
2017-Sep-21 03:01N 39°43' W 075°31'0 0.0
2017-Sep-21 02:31N 39°43' W 075°31'0 0.0
2017-Sep-21 02:00N 39°43' W 075°31'0 0.0
2017-Sep-21 01:31N 39°43' W 075°31'0 0.0
2017-Sep-21 01:00N 39°43' W 075°31'0 0.0
2017-Sep-21 00:30N 39°43' W 075°31'0 0.0
2017-Sep-21 00:01N 39°43' W 075°31'0 0.0
2017-Sep-20 23:31N 39°43' W 075°31'0 0.0
2017-Sep-20 23:00N 39°43' W 075°31'0 0.0
2017-Sep-20 22:30N 39°43' W 075°31'0 0.0
2017-Sep-20 22:00N 39°43' W 075°31'0 0.0
2017-Sep-20 21:31N 39°43' W 075°31'0 0.0
2017-Sep-20 21:00N 39°43' W 075°31'0 0.0
2017-Sep-20 20:31N 39°43' W 075°31'0 0.0
2017-Sep-20 20:01N 39°43' W 075°31'0 0.0
2017-Sep-20 19:31N 39°43' W 075°31'0 0.0
2017-Sep-20 19:00N 39°43' W 075°31'0 0.0
2017-Sep-20 18:31N 39°43' W 075°31'0 0.0
2017-Sep-20 18:00N 39°43' W 075°31'0 0.0
2017-Sep-20 17:31N 39°43' W 075°31'0 0.0
2017-Sep-20 17:01N 39°43' W 075°31'1 1.1
2017-Sep-20 16:31N 39°43' W 075°31'1 1.1
2017-Sep-20 16:00N 39°43' W 075°31'0 0.0
2017-Sep-20 15:31N 39°43' W 075°31'0 0.0
2017-Sep-20 15:00N 39°43' W 075°31'0 0.0
2017-Sep-20 14:01N 39°43' W 075°31'0 0.0
2017-Sep-20 13:31N 39°43' W 075°31'0 0.0
2017-Sep-20 13:01N 39°43' W 075°31'0 0.0
2017-Sep-20 12:31N 39°43' W 075°31'0 0.0
2017-Sep-20 12:01N 39°43' W 075°31'0 0.0
2017-Sep-20 11:30N 39°43' W 075°31'0 0.0
2017-Sep-20 11:00N 39°43' W 075°31'0 0.0
2017-Sep-20 10:31N 39°43' W 075°31'0 0.0
2017-Sep-20 10:01N 39°43' W 075°31'0 0.0
2017-Sep-20 09:31N 39°43' W 075°31'0 0.0
2017-Sep-20 09:01N 39°43' W 075°31'0 0.0
2017-Sep-20 08:30N 39°43' W 075°31'0 0.0
2017-Sep-20 08:00N 39°43' W 075°31'0 0.0
2017-Sep-20 07:30N 39°43' W 075°31'0 0.0
2017-Sep-20 07:00N 39°43' W 075°31'0 0.0
2017-Sep-20 06:31N 39°43' W 075°31'0 0.0
2017-Sep-20 06:00N 39°43' W 075°31'0 0.0
2017-Sep-20 05:31N 39°43' W 075°31'0 0.0
2017-Sep-20 05:00N 39°43' W 075°31'0 0.0
2017-Sep-20 04:31N 39°43' W 075°31'0 0.0
2017-Sep-20 04:00N 39°43' W 075°31'0 0.0
2017-Sep-20 03:30N 39°43' W 075°31'0 0.0
2017-Sep-20 03:00N 39°43' W 075°31'0 0.0
2017-Sep-20 02:30N 39°43' W 075°31'0 0.0
2017-Sep-20 02:00N 39°43' W 075°31'0 0.0
2017-Sep-20 01:30N 39°43' W 075°31'0 0.0
2017-Sep-20 01:00N 39°43' W 075°31'0 0.0
2017-Sep-20 00:30N 39°43' W 075°31'0 0.0
2017-Sep-20 00:00N 39°43' W 075°31'0 0.0
2017-Sep-19 23:30N 39°43' W 075°31'0 0.0
2017-Sep-19 23:00N 39°43' W 075°31'0 0.0
2017-Sep-19 22:30N 39°43' W 075°31'0 0.0
2017-Sep-19 22:01N 39°43' W 075°31'0 0.0
2017-Sep-19 21:30N 39°43' W 075°31'0 0.0
2017-Sep-19 21:00N 39°43' W 075°31'0 0.0
2017-Sep-19 20:30N 39°43' W 075°31'0 0.0
2017-Sep-19 20:00N 39°43' W 075°31'0 0.0
2017-Sep-19 19:30N 39°43' W 075°31'0 0.0
2017-Sep-19 19:00N 39°43' W 075°31'0 0.0
2017-Sep-19 18:30N 39°43' W 075°31'0 0.0
2017-Sep-19 18:01N 39°43' W 075°31'0 0.0
2017-Sep-19 17:30N 39°43' W 075°31'0 0.0
2017-Sep-19 17:00N 39°43' W 075°31'0 0.0
2017-Sep-19 16:30N 39°43' W 075°31'0 0.0
2017-Sep-19 16:00N 39°43' W 075°31'0 0.6
2017-Sep-19 15:31N 39°43' W 075°31'0 0.0
2017-Sep-19 15:01N 39°43' W 075°31'0 0.4
2017-Sep-19 14:31N 39°43' W 075°31'0 0.2
2017-Sep-19 14:00N 39°43' W 075°31'0 0.0
2017-Sep-19 13:31N 39°43' W 075°31'0 0.0
2017-Sep-19 13:01N 39°43' W 075°31'0 0.0
2017-Sep-19 12:30N 39°43' W 075°31'0 0.0
2017-Sep-19 12:00N 39°43' W 075°31'0 0.0
2017-Sep-19 11:31N 39°43' W 075°31'0 0.0
2017-Sep-19 11:00N 39°43' W 075°31'0 0.0
2017-Sep-19 10:31N 39°43' W 075°31'0 0.0
2017-Sep-19 10:00N 39°43' W 075°31'0 0.0
2017-Sep-19 09:30N 39°43' W 075°31'0 0.0
2017-Sep-19 09:00N 39°43' W 075°31'0 0.0
2017-Sep-19 08:30N 39°43' W 075°31'0 0.0
2017-Sep-19 08:00N 39°43' W 075°31'0 0.0
2017-Sep-19 07:30N 39°43' W 075°31'0 0.0
2017-Sep-19 07:00N 39°43' W 075°31'0 0.0
2017-Sep-19 06:30N 39°43' W 075°31'0 0.0
2017-Sep-19 06:00N 39°43' W 075°31'0 0.0
2017-Sep-19 05:30N 39°43' W 075°31'0 0.0
2017-Sep-19 05:00N 39°43' W 075°31'0 0.0
2017-Sep-19 04:30N 39°43' W 075°31'0 0.0
2017-Sep-19 04:00N 39°43' W 075°31'0 0.0
2017-Sep-19 03:30N 39°43' W 075°31'0 0.0
2017-Sep-19 03:00N 39°43' W 075°31'0 0.0
2017-Sep-19 02:30N 39°43' W 075°31'0 0.0
2017-Sep-19 02:01N 39°43' W 075°31'0 0.0
2017-Sep-19 01:31N 39°43' W 075°31'0 0.0
2017-Sep-19 01:00N 39°43' W 075°31'0 0.0
2017-Sep-19 00:30N 39°43' W 075°31'0 0.0
2017-Sep-19 00:00N 39°43' W 075°31'0 0.0
2017-Sep-18 23:30N 39°43' W 075°31'0 0.0
2017-Sep-18 23:00N 39°43' W 075°31'0 0.0
2017-Sep-18 22:31N 39°43' W 075°31'0 0.0
2017-Sep-18 22:00N 39°43' W 075°31'0 0.0
2017-Sep-18 21:30N 39°43' W 075°31'0 0.0
2017-Sep-18 21:00N 39°43' W 075°31'510.9
2017-Sep-18 20:31N 39°47' W 075°27'612.3
2017-Sep-18 20:00N 39°51' W 075°20'3 6.4
2017-Sep-18 19:30N 39°51' W 075°16'0 0.1
2017-Sep-18 19:00N 39°51' W 075°16'0 0.0
2017-Sep-18 18:30N 39°51' W 075°16'4 8.4
2017-Sep-18 18:00N 39°50' W 075°21'5 9.9
2017-Sep-18 17:30N 39°47' W 075°27'510.0
2017-Sep-18 17:01N 39°43' W 075°30'1 1.3
2017-Sep-18 16:31N 39°43' W 075°31'0 0.0
2017-Sep-18 16:00N 39°43' W 075°31'0 0.0
2017-Sep-18 15:30N 39°43' W 075°31'0 0.0
2017-Sep-18 15:00N 39°43' W 075°31'0 0.0
2017-Sep-18 14:31N 39°43' W 075°31'0 0.0
2017-Sep-18 14:00N 39°43' W 075°31'0 0.0
2017-Sep-18 13:30N 39°43' W 075°31'0 0.0
2017-Sep-18 13:00N 39°43' W 075°31'0 0.0
2017-Sep-18 12:30N 39°43' W 075°31'0 0.0
2017-Sep-18 12:00N 39°43' W 075°31'0 0.0
2017-Sep-18 11:30N 39°43' W 075°31'0 0.0
2017-Sep-18 11:00N 39°43' W 075°31'0 0.0
2017-Sep-18 10:30N 39°43' W 075°31'0 0.0
2017-Sep-18 10:01N 39°43' W 075°31'0 0.0
2017-Sep-18 09:30N 39°43' W 075°31'0 0.0
2017-Sep-18 09:00N 39°43' W 075°31'0 0.0
2017-Sep-18 08:30N 39°43' W 075°31'0 0.0
2017-Sep-18 08:00N 39°43' W 075°31'0 0.0
2017-Sep-18 07:30N 39°43' W 075°31'0 0.0
2017-Sep-18 07:00N 39°43' W 075°31'0 0.0
2017-Sep-18 06:30N 39°43' W 075°31'0 0.0
2017-Sep-18 06:00N 39°43' W 075°31'0 0.0
2017-Sep-18 05:30N 39°43' W 075°31'0 0.0
2017-Sep-18 05:00N 39°43' W 075°31'0 0.0
2017-Sep-18 04:30N 39°43' W 075°31'0 0.0
2017-Sep-18 04:00N 39°43' W 075°31'0 0.0
2017-Sep-18 03:30N 39°43' W 075°31'0 0.0
2017-Sep-18 03:00N 39°43' W 075°31'510.4
2017-Sep-18 02:30N 39°38' W 075°34'5 9.1
2017-Sep-18 02:00N 39°34' W 075°33'2 3.7
2017-Sep-18 01:30N 39°35' W 075°35'1 1.0
2017-Sep-18 01:00N 39°35' W 075°36'1 2.1
2017-Sep-18 00:31N 39°36' W 075°36'4 8.2
2017-Sep-18 00:00N 39°39' W 075°33'4 7.8
2017-Sep-17 23:30N 39°43' W 075°31'0 0.0
2017-Sep-17 23:01N 39°43' W 075°31'0 0.0
2017-Sep-17 22:30N 39°43' W 075°31'0 0.0
2017-Sep-17 22:01N 39°43' W 075°31'0 0.0
2017-Sep-17 21:31N 39°43' W 075°31'0 0.0
2017-Sep-17 21:00N 39°43' W 075°31'0 0.0
2017-Sep-17 20:31N 39°43' W 075°31'0 0.0
2017-Sep-17 20:01N 39°43' W 075°31'0 0.0
2017-Sep-17 19:30N 39°43' W 075°31'0 0.0
2017-Sep-17 19:01N 39°43' W 075°31'0 0.0
2017-Sep-17 18:31N 39°43' W 075°31'0 0.0
2017-Sep-17 18:01N 39°43' W 075°31'0 0.0
2017-Sep-17 17:31N 39°43' W 075°31'0 0.0
2017-Sep-17 17:01N 39°43' W 075°31'0 0.0
2017-Sep-17 16:31N 39°43' W 075°31'0 0.0
2017-Sep-17 16:01N 39°43' W 075°31'0 0.0
2017-Sep-17 15:31N 39°43' W 075°31'0 0.0
2017-Sep-17 15:00N 39°43' W 075°31'0 0.0
2017-Sep-17 14:30N 39°43' W 075°31'0 0.0
2017-Sep-17 14:00N 39°43' W 075°31'0 0.0
2017-Sep-17 13:31N 39°43' W 075°31'0 0.0
2017-Sep-17 13:00N 39°43' W 075°31'0 0.0
2017-Sep-17 12:30N 39°43' W 075°31'0 0.0
2017-Sep-17 12:00N 39°43' W 075°31'0 0.0
2017-Sep-17 11:30N 39°43' W 075°31'0 0.0
2017-Sep-17 11:00N 39°43' W 075°31'0 0.0
2017-Sep-17 10:30N 39°43' W 075°31'0 0.0
2017-Sep-17 10:00N 39°43' W 075°31'0 0.0
2017-Sep-17 09:30N 39°43' W 075°31'0 0.0
2017-Sep-17 09:00N 39°43' W 075°31'0 0.0
2017-Sep-17 08:30N 39°43' W 075°31'0 0.0
2017-Sep-17 08:00N 39°43' W 075°31'0 0.0
2017-Sep-17 07:30N 39°43' W 075°31'0 0.0
2017-Sep-17 07:00N 39°43' W 075°31'0 0.0
2017-Sep-17 06:30N 39°43' W 075°31'0 0.0
2017-Sep-17 06:00N 39°43' W 075°31'0 0.0
2017-Sep-17 05:30N 39°43' W 075°31'0 0.0
2017-Sep-17 05:01N 39°43' W 075°31'0 0.0
2017-Sep-17 04:30N 39°43' W 075°31'0 0.0
2017-Sep-17 04:00N 39°43' W 075°31'0 0.0
2017-Sep-17 03:30N 39°43' W 075°31'0 0.0
2017-Sep-17 03:00N 39°43' W 075°31'0 0.0
2017-Sep-17 02:31N 39°43' W 075°31'0 0.0
2017-Sep-17 02:01N 39°43' W 075°31'0 0.0
2017-Sep-17 01:30N 39°43' W 075°31'0 0.0
2017-Sep-17 01:00N 39°43' W 075°31'0 0.0
2017-Sep-17 00:31N 39°43' W 075°31'0 0.0
2017-Sep-17 00:00N 39°43' W 075°31'0 0.0
2017-Sep-16 23:30N 39°43' W 075°31'0 0.0
2017-Sep-16 23:00N 39°43' W 075°31'0 0.0
2017-Sep-16 22:30N 39°43' W 075°31'0 0.0
2017-Sep-16 22:00N 39°43' W 075°31'0 0.0
2017-Sep-16 21:30N 39°43' W 075°31'0 0.0
2017-Sep-16 21:00N 39°43' W 075°31'0 0.0
2017-Sep-16 20:30N 39°43' W 075°31'0 0.0
2017-Sep-16 20:00N 39°43' W 075°31'0 0.0
2017-Sep-16 19:31N 39°43' W 075°31'0 0.0
2017-Sep-16 19:00N 39°43' W 075°31'0 0.0
2017-Sep-16 18:31N 39°43' W 075°31'0 0.0
2017-Sep-16 18:00N 39°43' W 075°31'0 0.0
2017-Sep-16 17:31N 39°43' W 075°31'0 0.0
2017-Sep-16 17:01N 39°43' W 075°31'0 0.0
2017-Sep-16 16:31N 39°43' W 075°31'0 0.0
2017-Sep-16 16:01N 39°43' W 075°31'1 1.2
2017-Sep-16 15:30N 39°42' W 075°31'5 9.6
2017-Sep-16 15:01N 39°39' W 075°35'4 7.3
2017-Sep-16 14:31N 39°35' W 075°35'0 0.0
2017-Sep-16 14:00N 39°35' W 075°35'2 3.0
2017-Sep-16 13:30N 39°34' W 075°34'1 2.9
2017-Sep-16 13:01N 39°33' W 075°33'3 5.2
2017-Sep-16 12:30N 39°36' W 075°34'4 7.9
2017-Sep-16 12:01N 39°39' W 075°33'4 7.5
2017-Sep-16 11:30N 39°43' W 075°31'0 0.0
2017-Sep-16 11:00N 39°43' W 075°31'0 0.0
2017-Sep-16 10:30N 39°43' W 075°31'0 0.0
2017-Sep-16 10:00N 39°43' W 075°31'0 0.0
2017-Sep-16 09:30N 39°43' W 075°31'0 0.0
2017-Sep-16 09:01N 39°43' W 075°31'0 0.0
2017-Sep-16 08:30N 39°43' W 075°31'0 0.0
2017-Sep-16 08:00N 39°43' W 075°31'0 0.0
2017-Sep-16 07:30N 39°43' W 075°31'0 0.0
2017-Sep-16 07:00N 39°43' W 075°31'0 0.0
2017-Sep-16 06:30N 39°43' W 075°31'0 0.0
2017-Sep-16 06:01N 39°43' W 075°31'0 0.0
2017-Sep-16 05:30N 39°43' W 075°31'0 0.0
2017-Sep-16 05:00N 39°43' W 075°31'0 0.0
2017-Sep-16 04:30N 39°43' W 075°31'0 0.0
2017-Sep-16 04:00N 39°43' W 075°31'0 0.0
2017-Sep-16 03:30N 39°43' W 075°31'0 0.0
2017-Sep-16 03:00N 39°43' W 075°31'0 0.0
2017-Sep-16 02:31N 39°43' W 075°31'0 0.0
2017-Sep-16 02:00N 39°43' W 075°31'0 0.0
2017-Sep-16 01:30N 39°43' W 075°31'0 0.0
2017-Sep-16 01:01N 39°43' W 075°31'0 0.0
2017-Sep-16 00:30N 39°43' W 075°31'0 0.0
2017-Sep-16 00:01N 39°43' W 075°31'0 0.0
2017-Sep-15 23:30N 39°43' W 075°31'0 0.0
2017-Sep-15 23:00N 39°43' W 075°31'0 0.0
2017-Sep-15 22:30N 39°43' W 075°31'0 0.0
2017-Sep-15 22:01N 39°43' W 075°31'0 0.0
2017-Sep-15 21:31N 39°43' W 075°31'0 0.0
2017-Sep-15 21:01N 39°43' W 075°31'0 0.0
2017-Sep-15 20:31N 39°43' W 075°31'0 0.0
2017-Sep-15 20:01N 39°43' W 075°31'0 0.0
2017-Sep-15 19:31N 39°43' W 075°31'0 0.0
2017-Sep-15 19:00N 39°43' W 075°31'0 0.0
2017-Sep-15 18:31N 39°43' W 075°31'0 0.0
2017-Sep-15 18:00N 39°43' W 075°31'0 0.0
2017-Sep-15 17:31N 39°43' W 075°31'0 0.0
2017-Sep-15 17:01N 39°43' W 075°31'0 0.0
2017-Sep-15 16:30N 39°43' W 075°31'0 0.0
2017-Sep-15 16:00N 39°43' W 075°31'0 0.0
2017-Sep-15 15:30N 39°43' W 075°31'0 0.0
2017-Sep-15 15:00N 39°43' W 075°31'0 0.0
2017-Sep-15 14:30N 39°43' W 075°31'0 0.0
2017-Sep-15 14:00N 39°43' W 075°31'0 0.0
2017-Sep-15 13:30N 39°43' W 075°31'0 0.0
2017-Sep-15 13:00N 39°43' W 075°31'0 0.0
2017-Sep-15 12:30N 39°43' W 075°31'0 0.0
2017-Sep-15 12:00N 39°43' W 075°31'0 0.0
2017-Sep-15 11:30N 39°43' W 075°31'0 0.0
2017-Sep-15 11:00N 39°43' W 075°31'0 0.0
2017-Sep-15 10:30N 39°43' W 075°31'0 0.0
2017-Sep-15 10:00N 39°43' W 075°31'0 0.0
2017-Sep-15 09:30N 39°43' W 075°31'0 0.0
2017-Sep-15 09:00N 39°43' W 075°31'0 0.0
2017-Sep-15 08:30N 39°43' W 075°31'0 0.0
2017-Sep-15 08:01N 39°43' W 075°31'0 0.0
2017-Sep-15 07:31N 39°43' W 075°31'0 0.0
2017-Sep-15 07:00N 39°43' W 075°31'0 0.0
2017-Sep-15 06:31N 39°43' W 075°31'0 0.0
2017-Sep-15 06:00N 39°43' W 075°31'0 0.0
2017-Sep-15 05:30N 39°43' W 075°31'0 0.0
2017-Sep-15 05:00N 39°43' W 075°31'0 0.0
2017-Sep-15 04:30N 39°43' W 075°31'0 0.0
2017-Sep-15 04:00N 39°43' W 075°31'0 0.0
2017-Sep-15 03:30N 39°43' W 075°31'0 0.0
2017-Sep-15 03:00N 39°43' W 075°31'0 0.0
2017-Sep-15 02:30N 39°43' W 075°31'0 0.0
2017-Sep-15 02:00N 39°43' W 075°31'0 0.0
2017-Sep-15 01:30N 39°43' W 075°31'0 0.0
2017-Sep-15 01:01N 39°43' W 075°31'0 0.0
2017-Sep-15 00:30N 39°43' W 075°31'  

Dump ship's entire track history